don't click here

Sonic Adventure (DX): Overall Rankings

Records: Times | Rings | Scores | Races | Bosses | Freestyle
Leaders: Times | Rings | Scores | Races | Bosses | Freestyle | Overall
Rank Player Percent Points Date
1 Sonicspeedruner 98.4% 279 02-23-24
2 Gamepro011 96.5% 628 02-23-24
3 drminus 96.4% 659 02-23-24
4 Coolfansonic 95.6% 803 02-23-24
5 DarkPolarNight 95.4% 830 02-23-24
6 Jawzun 91.6% 1535 02-23-24
7 Dashjump 90.0% 1829 02-23-24
8 Avento128bits 88.1% 2180 02-23-24
9 DarkspinesSonic 88.0% 2195 02-23-24
10 ike6252 87.7% 2251 02-23-24
11 F-Man 85.9% 2587 02-23-24
12 TheRealShadnic 83.8% 2977 02-23-24
13 HyperSonic7701 83.3% 3074 02-23-24
14 Nim 82.9% 3142 02-23-24
15 yoshifan 81.1% 3482 02-23-24
16 frankoredstrato 80.5% 3580 02-23-24
17 francisco 79.6% 3751 02-23-24
18 Marth 79.2% 3831 02-23-24
19 InferSaime 78.1% 4037 02-23-24
20 PfoSonic 77.5% 4136 02-23-24
21 Paragod 77.3% 4179 02-23-24
22 THC98 76.4% 4345 02-23-24
23 Stefan 73.8% 4814 02-23-24
24 andy120195 73.8% 4830 02-23-24
25 Dekuboy 72.9% 4989 02-23-24
26 RPGnutter 72.0% 5162 02-23-24
27 bertin 71.7% 5216 02-23-24
28 sonicam 69.6% 5594 02-23-24
29 chaos shadow 68.8% 5749 02-23-24
30 chainchump 64.6% 6515 02-23-24
31 Combo 63.7% 6691 02-23-24
32 SkyLights 62.5% 6908 02-23-24
33 xXMegaManXx 61.0% 7182 02-23-24
34 Diamond 60.7% 7242 02-23-24
35 CoEmpathy 58.5% 7634 02-23-24
36 Auriman1 58.4% 7661 02-23-24
37 GerbilSoft 58.3% 7678 02-23-24
38 OmegaDJ 58.3% 7686 02-23-24
39 magnum12 57.6% 7816 02-23-24
40 Thorn 55.3% 8235 02-23-24
41 P1 Pause 55.2% 8252 02-23-24
42 mike89 54.2% 8434 02-23-24
43 Dave Cramer 52.4% 8773 02-23-24
44 Groudon199 52.2% 8809 02-23-24
45 Parax 51.9% 8858 02-23-24
46 SPVLABS 51.0% 9031 02-23-24
47 Shadow Jacky 51.0% 9033 02-23-24
48 Zurggriff 47.6% 9657 02-23-24
49 Niczur 47.0% 9757 02-23-24
50 Psymar 46.0% 9955 02-23-24
51 Arch 45.2% 10104 02-23-24
52 Chao_Fan 44.4% 10243 02-23-24
53 mauserman 44.1% 10290 02-23-24
54 Quartz 43.2% 10470 02-23-24
55 teamblackarms 42.6% 10572 02-23-24
56 danieldude 42.4% 10608 02-23-24
57 Psyknux 42.1% 10658 02-23-24
58 James_Bertolli 41.4% 10792 02-23-24
59 Cyan Ryan 41.4% 10801 02-23-24
60 NintenDan 41.2% 10830 02-23-24
61 Ring Rush 40.6% 10941 02-23-24
62 Turbos 40.4% 10975 02-23-24
63 Webber3000 40.4% 10978 02-23-24
64 Fr3nZy 40.3% 11004 02-23-24
65 Cream147 40.1% 11034 02-23-24
66 videogamemaster777 39.8% 11083 02-23-24
67 Siavash Tazari 39.8% 11097 02-23-24
68 buddychaos0415 39.4% 11168 02-23-24
69 ethmar 39.2% 11202 02-23-24
70 SadisticMystic 39.0% 11245 02-23-24
71 eggFL 37.7% 11470 02-23-24
72 Calfd 37.5% 11520 02-23-24
73 SB737 36.5% 11703 02-23-24
74 supersonic465 35.8% 11830 02-23-24
75 supersonicfan 35.2% 11932 02-23-24
76 FuzZerd 34.1% 12138 02-23-24
77 Aitamen 33.7% 12221 02-23-24
78 BigAL49 33.2% 12299 02-23-24
79 elecmouse101 33.1% 12319 02-23-24
80 Austinf 33.0% 12352 02-23-24
81 metanightmare22 32.0% 12526 02-23-24
82 dabestgamer 31.7% 12591 02-23-24
83 MiStEr_ShAoLiN 31.4% 12638 02-23-24
84 Mastakirby 31.1% 12701 02-23-24
85 Andrea Ritsu 30.9% 12734 02-23-24
86 itsPersonnal 30.7% 12762 02-23-24
87 Cybrax 30.0% 12889 02-23-24
88 WeegeeZV 29.9% 12916 02-23-24
89 SilvertheAlmighty 29.7% 12953 02-23-24
90 JamminX42 29.5% 12985 02-23-24
91 VMU Player Banned 28.1% 13241 02-23-24
92 Omega Rafael Santos 27.5% 13358 02-23-24
93 Staf 27.2% 13422 02-23-24
94 The T 26.8% 13482 02-23-24
95 EngiNerd 26.5% 13536 02-23-24
96 lordmetalsonic 26.2% 13595 02-23-24
97 Hipertails12 26.2% 13601 02-23-24
98 Pokemonmaster888 25.8% 13679 02-23-24
99 welldooder64 25.7% 13691 02-23-24
100 GreatStar 25.5% 13728 02-23-24
101 The Great Lord Mick 25.2% 13778 02-23-24
102 Sondow 25.1% 13809 02-23-24
103 LinksDarkArrows 24.9% 13829 02-23-24
104 Wither 24.3% 13948 02-23-24
105 Modest 24.3% 13951 02-23-24
106 Skylace 24.2% 13972 02-23-24
107 a_moustache 23.5% 14088 02-23-24
108 Rolken 22.6% 14270 02-23-24
109 Xia 21.0% 14554 02-23-24
110 Spinballwizard 21.0% 14563 02-23-24
111 Kogen Player Banned 20.9% 14579 02-23-24
112 Don 20.7% 14607 02-23-24
113 Game_Complete 20.6% 14628 02-23-24
114 Miles9999 20.5% 14641 02-23-24
115 f0rever_zer0 20.5% 14643 02-23-24
116 iden1 20.5% 14652 02-23-24
117 Twilisailor 20.5% 14654 02-23-24
118 Cutiefox 20.3% 14690 02-23-24
119 andres430 19.6% 14813 02-23-24
120 Cruizer 19.5% 14825 02-23-24
121 SADXTryHard 19.4% 14850 02-23-24
122 iSonicKid2K 19.3% 14862 02-23-24
123 N 18.8% 14970 02-23-24
124 GarnetPrincess 18.6% 14992 02-23-24
125 AxlThunder 18.6% 15008 02-23-24
126 knuckles_sonic8 18.0% 15116 02-23-24
127 KinkyCadence 17.7% 15174 02-23-24
128 The Knuckles Chao 17.5% 15195 02-23-24
129 Team_Yoshi 17.5% 15201 02-23-24
130 Termon 17.3% 15239 02-23-24
131 LittleBigness 17.2% 15259 02-23-24
132 SonicWinDX 17.1% 15269 02-23-24
133 FoxBoy 16.9% 15308 02-23-24
133 Zethor 16.9% 15308 02-23-24
135 Drakodan 16.4% 15414 02-23-24
136 Sonic Singularity 15.1% 15647 02-23-24
137 paulie9990 14.6% 15740 02-23-24
138 SilverSonic 14.1% 15835 02-23-24
139 sonicd5 13.9% 15859 02-23-24
140 MPit08 13.8% 15893 02-23-24
141 Mo Player Banned 13.6% 15928 02-23-24
142 koinu93 13.3% 15975 02-23-24
143 Cod4Scopes 13.1% 16008 02-23-24
144 Hunters13 12.9% 16045 02-23-24
145 Jerzia 12.9% 16049 02-23-24
146 HyperSonic64 12.9% 16057 02-23-24
147 booo95 12.7% 16091 02-23-24
148 Chawkk 12.6% 16099 02-23-24
149 R3FR4G 12.5% 16131 02-23-24
150 SuperSonic101 12.5% 16133 02-23-24
151 Maxinfamily 12.4% 16137 02-23-24
152 Kanimayo_Jp 12.2% 16186 02-23-24
153 PsyBorg 12.1% 16201 02-23-24
154 LilZero 12.0% 16216 02-23-24
155 Flying Fox 12.0% 16218 02-23-24
156 BrokenArthritis 11.9% 16226 02-23-24
157 Therio 11.6% 16289 02-23-24
158 sonicspeed 11.3% 16352 02-23-24
159 SonicAD 11.2% 16372 02-23-24
160 AlphaDolphin 11.1% 16387 02-23-24
161 douglas 11.0% 16396 02-23-24
162 thewaytodawnnn 11.0% 16406 02-23-24
163 ModifiedMonkee 10.9% 16423 02-23-24
164 Matt_TY 10.8% 16435 02-23-24
165 SuperBlitzCraig 10.3% 16522 02-23-24
166 joecoolgames 10.3% 16529 02-23-24
167 Cooljay 10.2% 16551 02-23-24
167 SeaWolf 10.2% 16551 02-23-24
169 videogamer1014 9.9% 16600 02-23-24
170 AC-Tygo 9.7% 16642 02-23-24
171 welshmoose05 9.7% 16644 02-23-24
172 OddCook 9.4% 16691 02-23-24
173 crazy1993 9.4% 16701 02-23-24
174 TFEC Headshot 9.4% 16703 02-23-24
175 Mcshuggets 9.3% 16716 02-23-24
176 Mariobutch 9.1% 16743 02-23-24
177 Irregular Zero 9.0% 16778 02-23-24
178 niscool 8.8% 16804 02-23-24
179 nuckrieg 8.8% 16805 02-23-24
180 Shadowthegreat 8.5% 16859 02-23-24
180 superjupi 8.5% 16859 02-23-24
182 SirTobbii 8.5% 16868 02-23-24
183 Powerjohn25 8.3% 16899 02-23-24
184 sonamyfan666 8.3% 16906 02-23-24
185 iarebored 8.2% 16909 02-23-24
186 SaviourDC 8.2% 16911 02-23-24
187 Badlex727 8.2% 16923 02-23-24
188 Yoshipuff 8.1% 16929 02-23-24
189 SonicKnuckles 8.1% 16933 02-23-24
190 Werey 8.0% 16954 02-23-24
191 adf 7.8% 16998 02-23-24
192 Megaman EXE565 7.5% 17050 02-23-24
193 ArcticDragon 7.5% 17055 02-23-24
194 Platformer 7.2% 17104 02-23-24
195 Swift Hobo 7.1% 17125 02-23-24
196 FocusSight64 7.1% 17127 02-23-24
197 timpkmn89 7.0% 17133 02-23-24
198 Vicklaw 6.9% 17148 02-23-24
199 wheatrich 6.8% 17171 02-23-24
200 Rickyman48 6.8% 17175 02-23-24
201 Sm4sh 6.7% 17199 02-23-24
202 KitsuneYamaro 6.6% 17217 02-23-24
203 ArthurVGCP 6.5% 17237 02-23-24
204 Tethys 6.4% 17247 02-23-24
205 Triseena 6.3% 17272 02-23-24
206 CyberShadow 6.2% 17279 02-23-24
206 Starlight Sable 6.2% 17279 02-23-24
208 Destroyer121121 6.2% 17291 02-23-24
209 slade23 6.1% 17295 02-23-24
210 IsisDazs 6.1% 17310 02-23-24
211 dShadow 6.1% 17311 02-23-24
212 BlankTH 5.8% 17362 02-23-24
213 Monkeh 5.7% 17386 02-23-24
214 SonicU260 5.5% 17423 02-23-24
215 Swinkly 5.4% 17424 02-23-24
216 DaDude 5.4% 17433 02-23-24
217 Richied 5.4% 17434 02-23-24
218 Crispian 5.4% 17438 02-23-24
219 Zip 5.2% 17462 02-23-24
220 VeritasDL 5.1% 17493 02-23-24
221 tal39h 4.9% 17523 02-23-24
222 Kirbymon30 4.9% 17525 02-23-24
223 ALundstrom10 4.9% 17533 02-23-24
224 soniccoloursunleashed 4.7% 17566 02-23-24
225 Drflash55 4.6% 17583 02-23-24
226 Bass 4.5% 17592 02-23-24
227 Yish 4.5% 17601 02-23-24
228 neaolas 4.4% 17611 02-23-24
229 zapp 4.4% 17612 02-23-24
230 UninspiredUsername 4.4% 17618 02-23-24
231 Sonicsuperstar1 4.4% 17624 02-23-24
232 superiorsonic 4.4% 17625 02-23-24
233 gamefreak1292 4.3% 17634 02-23-24
234 Sora_yx 4.1% 17664 02-23-24
235 Chaos_Overlord 3.9% 17709 02-23-24
236 TakaRikka 3.9% 17717 02-23-24
237 Valfore 3.8% 17725 02-23-24
238 Dage4Aquatic 3.7% 17738 02-23-24
239 ShinigamiMachine 3.7% 17751 02-23-24
240 Regano1000 3.5% 17776 02-23-24
241 MK 3.5% 17788 02-23-24
242 Ace747 3.4% 17804 02-23-24
243 Jua Rever 3.2% 17831 02-23-24
244 Sithwarrior26 3.1% 17858 02-23-24
245 HHNNBBHHN 3.0% 17872 02-23-24
245 Illidan 3.0% 17872 02-23-24
247 Venick409 3.0% 17875 02-23-24
248 Brian_pso 3.0% 17877 02-23-24
249 nman36 3.0% 17881 02-23-24
250 Egor305 2.8% 17908 02-23-24
251 ingx24 2.8% 17911 02-23-24
252 TheChaosEmeraIds 2.8% 17914 02-23-24
253 Nickson98 2.7% 17924 02-23-24
254 SkyBon 2.7% 17928 02-23-24
255 FSSRandomvids 2.7% 17930 02-23-24
256 dekki1234 2.7% 17938 02-23-24
257 Fozer 2.6% 17950 02-23-24
258 sonic29887 2.6% 17952 02-23-24
259 Aiko 2.6% 17958 02-23-24
260 Colomb_30 2.5% 17960 02-23-24
261 TheUltraBlur 2.5% 17961 02-23-24
262 1stKirbyever 2.5% 17970 02-23-24
263 TimTH 2.4% 17983 02-23-24
264 Th4tN1nj4Turtl3 2.2% 18015 02-23-24
265 Cort_pso 2.2% 18022 02-23-24
266 ieatatsonic 2.2% 18026 02-23-24
267 Doom-9 2.1% 18033 02-23-24
268 Mariosonic15 2.1% 18040 02-23-24
269 MStitomix 2.0% 18051 02-23-24
270 HermitHelmet 2.0% 18054 02-23-24
271 arcfx1985 2.0% 18059 02-23-24
272 Got4n 1.9% 18076 02-23-24
272 SuperSonic71087 1.9% 18076 02-23-24
274 Artie 1.9% 18081 02-23-24
274 Questionguy555 1.9% 18081 02-23-24
276 Jose_15 1.9% 18084 02-23-24
277 djmat 1.8% 18096 02-23-24
278 SuperSonicfan9595 1.8% 18101 02-23-24
279 sonicandamy 1.7% 18116 02-23-24
280 LancexExWx 1.6% 18126 02-23-24
281 Paixii 1.6% 18131 02-23-24
282 son1cgu1tar 1.6% 18134 02-23-24
283 Heroes_Hater 1.5% 18148 02-23-24
284 BallzeH 1.5% 18151 02-23-24
285 Jamixesa 1.5% 18156 02-23-24
286 Mankster101 1.5% 18158 02-23-24
287 BecauseWarAnvil 1.4% 18164 02-23-24
288 Xandre69 1.4% 18166 02-23-24
289 Shanekilz 1.4% 18173 02-23-24
289 SpiritDragon1995 1.4% 18173 02-23-24
291 Crydio 1.4% 18174 02-23-24
292 MarewBFN 1.3% 18191 02-23-24
293 stanski 1.3% 18193 02-23-24
294 Sonique Hedgehog 1.3% 18198 02-23-24
295 Blue Infamy 1.2% 18211 02-23-24
296 p0ker 1.2% 18213 02-23-24
297 ErrortheCucco 1.1% 18222 02-23-24
298 Rikum22 1.1% 18225 02-23-24
299 Arthas 1.1% 18227 02-23-24
300 sonic1001 1.1% 18234 02-23-24
301 AJSIV 1.0% 18237 02-23-24
302 syco1098 1.0% 18240 02-23-24
303 IDGeek121 1.0% 18241 02-23-24
303 Sonic the Hedgehod16 1.0% 18241 02-23-24
305 WingedInsignia 1.0% 18244 02-23-24
306 ASINISTERTACO 1.0% 18248 02-23-24
307 sonicfan9 0.9% 18254 02-23-24
308 BlackArmsShadow 0.9% 18265 02-23-24
309 themachoman202 0.9% 18266 02-23-24
310 shadowblast63 Player Banned 0.8% 18274 02-23-24
311 Fivavoa 0.8% 18275 02-23-24
312 Mr. Jones 0.8% 18276 02-23-24
313 Ben1502 0.8% 18278 02-23-24
314 darkstarblaze 0.8% 18280 02-23-24
314 MastaToken 0.8% 18280 02-23-24
314 TommyeAsY 0.8% 18280 02-23-24
317 Greham Adelphis 0.8% 18281 02-23-24
318 ptorflaxendrosis 0.8% 18283 02-23-24
319 FlandreScarlet9999vr 0.8% 18286 02-23-24
319 Gvozdevik 0.8% 18286 02-23-24
321 Knuckles 0.8% 18290 02-23-24
321 Zeldocto 0.8% 18290 02-23-24
323 BeeAwwb 0.7% 18295 02-23-24
324 KaM Mark MaK 0.7% 18299 02-23-24
325 ShadouZaHejjihoggu 0.7% 18300 02-23-24
326 Sonic The Star 0.6% 18310 02-23-24
327 darkersupershadic 0.6% 18311 02-23-24
328 Sogeking 0.6% 18313 02-23-24
329 Sonic62 0.6% 18315 02-23-24
330 Sarger001 0.6% 18319 02-23-24
331 dragondragon18 0.6% 18320 02-23-24
331 Grady219 0.6% 18320 02-23-24
331 SonicK100 0.6% 18320 02-23-24
334 Shadygamerfreak 0.6% 18322 02-23-24
335 Jawaah 0.6% 18324 02-23-24
336 SpinDashMaster 0.5% 18328 02-23-24
337 Antek 0.5% 18329 02-23-24
338 Klaus 0.5% 18331 02-23-24
339 SilverK 0.5% 18334 02-23-24
340 BioShadow 0.5% 18335 02-23-24
341 Videogamer123 0.5% 18344 02-23-24
342 IcKY 0.4% 18347 02-23-24
343 oTaiIilLsS 0.4% 18354 02-23-24
344 isaihtb11 0.4% 18355 02-23-24
345 OhNoes! 0.4% 18359 02-23-24
346 Mad Andy 0.4% 18360 02-23-24
347 zaktu40 0.4% 18361 02-23-24
348 S-MS32X-S 0.4% 18362 02-23-24
349 gaara1234 0.4% 18364 02-23-24
350 gamed00d 0.3% 18370 02-23-24
351 Mister_Slick 0.3% 18375 02-23-24
352 Sonic06Fan 0.3% 18378 02-23-24
353 Rush Hero 0.3% 18381 02-23-24
354 ChaosNexuss 0.3% 18382 02-23-24
355 SonicMega167 0.2% 18387 02-23-24
356 Iwannabelink 0.2% 18388 02-23-24
357 sonknuck23 0.2% 18390 02-23-24
358 gamer1245 0.2% 18399 02-23-24
359 DanielTheFalcon 0.2% 18400 02-23-24
360 Burningskull123 0.1% 18406 02-23-24
361 Sonicontherun 0.1% 18417 02-23-24
362 Lil_Dude 0.1% 18419 02-23-24
363 antiwwe 0.0% 18423 02-23-24
364 Genuine Hedgehog 0.0% 18426 02-23-24
365 Cbwade15 0.0% 18427 02-23-24
366 Tyrouble 0.0% 18431 02-23-24
367 MakoHNM 0.0% 18438 02-23-24
367 MegabombBlade 0.0% 18438 02-23-24
367 neji_hyuuga 0.0% 18438 02-23-24
367 Over 0.0% 18438 02-23-24
367 sdj6707 Player Banned 0.0% 18438 02-23-24
367 Tran Sonic Fan Player Banned 0.0% 18438 02-23-24

This page is using the New Data Table System. [FUTURE]

Game ID: 3 | Category ID: 10
Hits: 88,576 | Hits This Month: 198 | DB Calls: 21 | Mem Usage: 953.26 KB | Time: 0.09s | Printable

The Sonic Center v3.9
Copyright 2003-2011 by The Sonic Center Team.